createdAt,value
2018-12-04T00:02:21.061Z,4.60
2018-12-04T00:04:49.622Z,4.13
2018-12-04T00:07:18.154Z,4.40
2018-12-04T00:09:46.626Z,4.53
2018-12-04T00:12:15.073Z,4.67
2018-12-04T00:14:43.551Z,5.00
2018-12-04T00:17:11.955Z,4.47
2018-12-04T00:19:40.457Z,3.87
2018-12-04T00:22:08.924Z,3.73
2018-12-04T00:24:37.509Z,3.70
2018-12-04T00:27:05.984Z,3.93
2018-12-04T00:29:34.498Z,4.13
2018-12-04T00:32:02.958Z,3.60
2018-12-04T00:34:31.564Z,3.00
2018-12-04T00:37:00.046Z,2.80
2018-12-04T00:39:28.553Z,1.80
2018-12-04T00:41:57.060Z,1.77
2018-12-04T00:44:25.635Z,1.77
2018-12-04T00:46:54.099Z,1.40
2018-12-04T00:49:22.610Z,1.10
2018-12-04T00:51:51.090Z,1.73
2018-12-04T00:54:19.626Z,0.87
2018-12-04T00:56:48.160Z,0.93
2018-12-04T00:59:16.672Z,0.87
2018-12-04T01:01:45.202Z,1.20
2018-12-04T01:04:13.701Z,0.73
2018-12-04T01:06:42.219Z,0.80
2018-12-04T01:09:11.464Z,1.13
2018-12-04T01:11:39.961Z,0.80
2018-12-04T01:14:08.437Z,1.10
2018-12-04T01:16:36.961Z,1.33
2018-12-04T01:19:05.390Z,0.90
2018-12-04T01:21:33.926Z,1.43
2018-12-04T01:24:02.456Z,1.50
2018-12-04T01:26:30.920Z,2.60
2018-12-04T01:28:59.393Z,2.53
2018-12-04T01:31:27.919Z,2.80
2018-12-04T01:33:56.407Z,3.13
2018-12-04T01:36:24.936Z,3.80
2018-12-04T01:38:53.461Z,2.77
2018-12-04T01:41:22.012Z,3.80
2018-12-04T01:43:50.488Z,3.30
2018-12-04T01:46:19.027Z,2.70
2018-12-04T01:48:47.586Z,3.47
2018-12-04T01:51:16.119Z,3.60
2018-12-04T01:53:44.655Z,3.17
2018-12-04T01:56:13.174Z,3.83
2018-12-04T01:58:41.727Z,4.73
2018-12-04T02:01:10.255Z,4.93
2018-12-04T02:03:38.775Z,4.10
2018-12-04T02:06:07.257Z,3.80
2018-12-04T02:08:35.795Z,4.20
2018-12-04T02:11:04.322Z,4.53
2018-12-04T02:13:32.779Z,3.83
2018-12-04T02:16:01.251Z,3.93
2018-12-04T02:18:29.772Z,3.40
2018-12-04T02:20:58.239Z,3.60
2018-12-04T02:23:27.354Z,3.37
2018-12-04T02:25:55.892Z,3.03
2018-12-04T02:28:28.568Z,2.97
2018-12-04T02:30:57.114Z,3.03
2018-12-04T02:33:25.587Z,2.83
2018-12-04T02:35:54.101Z,2.70
2018-12-04T02:38:22.622Z,2.90
2018-12-04T02:40:51.069Z,3.70
2018-12-04T02:43:19.587Z,3.17
2018-12-04T02:45:48.395Z,2.40
2018-12-04T02:48:16.954Z,2.73
2018-12-04T02:50:45.533Z,2.50
2018-12-04T02:53:14.039Z,3.10
2018-12-04T02:55:42.570Z,3.00
2018-12-04T02:58:11.037Z,2.93
2018-12-04T03:00:39.555Z,2.67
2018-12-04T03:03:08.015Z,3.00
2018-12-04T03:05:36.461Z,3.50
2018-12-04T03:08:04.954Z,3.40
2018-12-04T03:10:33.498Z,3.60
2018-12-04T03:13:02.156Z,3.97
2018-12-04T03:15:30.741Z,3.83
2018-12-04T03:17:59.192Z,3.40
2018-12-04T03:20:27.654Z,3.20
2018-12-04T03:22:56.115Z,3.83
2018-12-04T03:25:24.645Z,3.77
2018-12-04T03:27:53.144Z,3.73
2018-12-04T03:30:21.604Z,3.37
2018-12-04T03:32:50.095Z,2.90
2018-12-04T03:35:18.568Z,3.17
2018-12-04T03:37:47.119Z,3.33
2018-12-04T03:40:15.631Z,2.93
2018-12-04T03:42:44.142Z,3.47
2018-12-04T03:45:12.642Z,2.60
2018-12-04T03:47:41.112Z,3.13
2018-12-04T03:50:09.638Z,3.33
2018-12-04T03:52:38.162Z,3.40
2018-12-04T03:55:06.705Z,3.43
2018-12-04T03:57:35.156Z,3.10
2018-12-04T04:00:03.726Z,3.97
2018-12-04T04:02:32.324Z,4.03
2018-12-04T04:05:00.871Z,3.83
2018-12-04T04:07:29.361Z,4.47
2018-12-04T04:09:57.932Z,5.27
2018-12-04T04:12:26.609Z,5.37
2018-12-04T04:14:55.123Z,6.43
2018-12-04T04:17:23.570Z,5.97
2018-12-04T04:19:52.066Z,6.90
2018-12-04T04:22:20.614Z,5.70
2018-12-04T04:24:49.237Z,7.10
2018-12-04T04:27:17.900Z,6.97
2018-12-04T04:29:46.434Z,7.30
2018-12-04T04:32:14.952Z,7.23
2018-12-04T04:34:43.453Z,7.97
2018-12-04T04:37:11.960Z,7.43
2018-12-04T04:39:40.578Z,8.20
2018-12-04T04:42:09.060Z,8.70
2018-12-04T04:44:37.557Z,8.50
2018-12-04T04:47:06.047Z,8.80
2018-12-04T04:49:34.621Z,8.73
2018-12-04T04:52:03.146Z,9.17
2018-12-04T04:54:31.643Z,9.63
2018-12-04T04:57:00.203Z,9.20
2018-12-04T04:59:28.743Z,8.67
2018-12-04T05:01:57.323Z,8.27
2018-12-04T05:04:25.877Z,8.30
2018-12-04T05:06:54.492Z,7.00
2018-12-04T05:09:23.048Z,6.60
2018-12-04T05:11:51.547Z,5.83
2018-12-04T05:14:19.971Z,5.73
2018-12-04T05:16:48.462Z,6.23
2018-12-04T05:19:17.231Z,6.00
2018-12-04T05:21:45.797Z,5.10
2018-12-04T05:24:14.482Z,5.90
2018-12-04T05:26:42.971Z,5.30
2018-12-04T05:29:11.395Z,5.27
2018-12-04T05:31:42.901Z,4.90
2018-12-04T05:34:16.242Z,5.50
2018-12-04T05:36:44.974Z,5.30
2018-12-04T05:39:18.271Z,4.93
2018-12-04T05:41:52.222Z,5.10
2018-12-04T05:44:20.683Z,4.00
2018-12-04T05:46:49.171Z,4.60
2018-12-04T05:49:22.317Z,4.23
2018-12-04T05:51:50.989Z,4.43
2018-12-04T05:54:27.266Z,4.43
2018-12-04T05:56:56.368Z,4.40
2018-12-04T05:59:27.269Z,4.37
2018-12-04T06:01:56.018Z,4.80
2018-12-04T06:04:27.202Z,4.63
2018-12-04T06:06:56.576Z,5.47
2018-12-04T06:09:25.841Z,4.20
2018-12-04T06:11:58.185Z,5.20
2018-12-04T06:14:28.944Z,3.97
2018-12-04T06:16:57.555Z,4.00
2018-12-04T06:19:26.058Z,4.73
2018-12-04T06:21:54.583Z,4.13
2018-12-04T06:24:35.029Z,3.87
2018-12-04T06:27:03.572Z,4.57
2018-12-04T06:29:38.631Z,4.50
2018-12-04T06:32:07.348Z,5.70
2018-12-04T06:34:48.094Z,3.63
2018-12-04T06:37:16.916Z,4.30
2018-12-04T06:39:45.395Z,6.80
2018-12-04T06:42:13.902Z,3.87
2018-12-04T06:44:46.734Z,7.17
2018-12-04T06:47:13.065Z,3.80
2018-12-04T06:49:41.574Z,3.43
2018-12-04T06:52:10.089Z,3.57
2018-12-04T06:54:38.577Z,4.20
2018-12-04T06:57:07.119Z,4.53
2018-12-04T06:59:35.580Z,3.23
2018-12-04T07:02:04.168Z,3.13
2018-12-04T07:04:32.790Z,3.10
2018-12-04T07:07:01.460Z,3.03
2018-12-04T07:09:29.920Z,2.87
2018-12-04T07:12:02.445Z,2.70
2018-12-04T07:14:29.171Z,2.27
2018-12-04T07:16:57.772Z,2.97
2018-12-04T07:19:26.248Z,3.17
2018-12-04T07:21:54.782Z,2.80
2018-12-04T07:24:23.252Z,2.53
2018-12-04T07:26:51.988Z,2.90
2018-12-04T07:29:20.539Z,3.27
2018-12-04T07:31:49.073Z,2.83
2018-12-04T07:34:17.828Z,2.83
2018-12-04T07:36:46.303Z,2.93
2018-12-04T07:39:14.808Z,4.50
2018-12-04T07:41:43.264Z,3.53
2018-12-04T07:44:11.856Z,3.53
2018-12-04T07:46:40.424Z,2.93
2018-12-04T07:49:08.914Z,2.47
2018-12-04T07:51:37.397Z,2.47
2018-12-04T07:54:05.886Z,3.13
2018-12-04T07:56:34.410Z,2.83
2018-12-04T07:59:02.890Z,3.17
2018-12-04T08:01:31.344Z,2.97
2018-12-04T08:03:59.871Z,2.63
2018-12-04T08:06:28.390Z,2.50
2018-12-04T08:08:56.973Z,2.80
2018-12-04T08:11:25.467Z,3.23
2018-12-04T08:13:53.939Z,3.67
2018-12-04T08:16:22.422Z,2.90
2018-12-04T08:18:50.935Z,3.27
2018-12-04T08:21:19.694Z,2.70
2018-12-04T08:23:49.022Z,2.60
2018-12-04T08:26:17.507Z,2.50
2018-12-04T08:28:45.978Z,2.90
2018-12-04T08:31:14.519Z,2.30
2018-12-04T08:33:43.050Z,2.40
2018-12-04T08:36:11.525Z,3.17
2018-12-04T08:38:40.030Z,3.40
2018-12-04T08:41:08.482Z,3.20
2018-12-04T08:43:37.085Z,2.60
2018-12-04T08:46:05.532Z,2.60
2018-12-04T08:48:33.978Z,2.30
2018-12-04T08:51:02.429Z,2.17
2018-12-04T08:53:30.981Z,2.90
2018-12-04T08:55:59.474Z,2.30
2018-12-04T08:58:28.159Z,2.40
2018-12-04T09:00:56.772Z,2.83
2018-12-04T09:03:25.376Z,2.40
2018-12-04T09:05:53.977Z,2.40
2018-12-04T09:08:22.698Z,2.67
2018-12-04T09:10:51.520Z,2.77
2018-12-04T09:13:20.833Z,2.30
2018-12-04T09:15:49.492Z,1.93
2018-12-04T09:18:18.007Z,2.43
2018-12-04T09:20:46.731Z,2.00
2018-12-04T09:23:15.515Z,2.30
2018-12-04T09:25:44.192Z,2.30
2018-12-04T09:28:12.795Z,2.87
2018-12-04T09:30:41.357Z,2.53
2018-12-04T09:33:09.890Z,2.50
2018-12-04T09:35:38.459Z,3.00
2018-12-04T09:38:07.065Z,2.60
2018-12-04T09:40:35.635Z,2.47
2018-12-04T09:43:04.338Z,2.60
2018-12-04T09:45:33.005Z,2.60
2018-12-04T09:48:01.605Z,2.97
2018-12-04T09:50:30.128Z,3.23
2018-12-04T09:52:58.691Z,2.83
2018-12-04T09:55:27.241Z,3.23
2018-12-04T09:57:55.815Z,3.67
2018-12-04T10:00:24.403Z,3.23
2018-12-04T10:02:52.955Z,3.30
2018-12-04T10:05:21.494Z,3.40
2018-12-04T10:07:50.090Z,2.37
2018-12-04T10:10:18.699Z,2.90
2018-12-04T10:12:47.379Z,3.40
2018-12-04T10:15:16.085Z,2.77
2018-12-04T10:17:44.610Z,3.23
2018-12-04T10:20:14.022Z,2.87
2018-12-04T10:22:42.543Z,2.90
2018-12-04T10:25:11.166Z,2.63
2018-12-04T10:27:39.686Z,2.57
2018-12-04T10:30:09.964Z,2.43
2018-12-04T10:32:39.581Z,3.00
2018-12-04T10:35:08.161Z,3.20
2018-12-04T10:37:36.767Z,2.47
2018-12-04T10:40:07.116Z,2.20
2018-12-04T10:42:35.849Z,2.20
2018-12-04T10:45:04.336Z,2.03
2018-12-04T10:47:32.893Z,2.17
2018-12-04T10:50:01.412Z,2.57
2018-12-04T10:52:30.011Z,2.10
2018-12-04T10:54:59.559Z,2.33
2018-12-04T10:57:28.161Z,2.70
2018-12-04T10:59:56.802Z,2.90
2018-12-04T11:02:26.098Z,3.20
2018-12-04T11:04:54.578Z,3.13
2018-12-04T11:07:23.066Z,2.73
2018-12-04T11:09:51.561Z,3.13
2018-12-04T11:12:20.099Z,2.40
2018-12-04T11:14:48.653Z,2.63
2018-12-04T11:17:17.275Z,2.70
2018-12-04T11:19:45.806Z,2.57
2018-12-04T11:22:14.273Z,3.30
2018-12-04T11:24:42.858Z,2.83
2018-12-04T11:27:11.392Z,2.57
2018-12-04T11:29:39.916Z,2.47
2018-12-04T11:32:08.673Z,3.00
2018-12-04T11:34:37.173Z,2.00
2018-12-04T11:37:05.767Z,2.20
2018-12-04T11:39:34.271Z,2.50
2018-12-04T11:42:02.744Z,2.30
2018-12-04T11:44:31.221Z,2.20
2018-12-04T11:46:59.642Z,2.83
2018-12-04T11:49:28.118Z,2.40
2018-12-04T11:51:56.692Z,3.50
2018-12-04T11:54:25.303Z,2.70
2018-12-04T11:56:53.833Z,2.53
2018-12-04T11:59:22.360Z,3.40
2018-12-04T12:01:50.892Z,2.70
2018-12-04T12:04:19.404Z,2.60
2018-12-04T12:06:48.002Z,2.80
2018-12-04T12:09:16.499Z,2.70
2018-12-04T12:11:45.008Z,3.40
2018-12-04T12:14:13.566Z,3.20
2018-12-04T12:16:42.096Z,3.27
2018-12-04T12:19:10.598Z,3.67
2018-12-04T12:21:39.368Z,2.50
2018-12-04T12:24:07.838Z,3.47
2018-12-04T12:26:36.419Z,2.60
2018-12-04T12:29:05.059Z,2.60
2018-12-04T12:31:33.597Z,2.70
2018-12-04T12:34:02.098Z,2.80
2018-12-04T12:36:30.671Z,3.30
2018-12-04T12:38:59.148Z,3.47
2018-12-04T12:41:27.654Z,6.90
2018-12-04T12:46:27.784Z,3.10
2018-12-04T12:48:56.397Z,3.37
2018-12-04T12:51:24.952Z,3.17
2018-12-04T12:53:53.471Z,2.70
2018-12-04T12:56:22.075Z,2.03
2018-12-04T12:58:51.806Z,2.23
2018-12-04T13:01:20.430Z,2.37
2018-12-04T13:03:48.915Z,2.20
2018-12-04T13:06:17.521Z,2.47
2018-12-04T13:08:46.065Z,2.10
2018-12-04T13:11:14.594Z,2.20
2018-12-04T13:13:43.268Z,2.63
2018-12-04T13:16:11.801Z,2.50
2018-12-04T13:18:40.397Z,2.10
2018-12-04T13:21:08.874Z,2.10
2018-12-04T13:23:37.360Z,2.57
2018-12-04T13:26:09.796Z,2.20
2018-12-04T13:28:38.552Z,1.77
2018-12-04T13:31:07.163Z,1.87
2018-12-04T13:33:36.067Z,2.03
2018-12-04T13:36:04.730Z,2.67
2018-12-04T13:38:33.253Z,2.70
2018-12-04T13:41:01.833Z,2.43
2018-12-04T13:43:30.425Z,2.87
2018-12-04T13:45:58.980Z,2.87
2018-12-04T13:48:27.496Z,2.93
2018-12-04T13:50:56.098Z,2.80
2018-12-04T13:53:24.690Z,2.33
2018-12-04T13:55:53.277Z,3.47
2018-12-04T13:58:21.873Z,2.83
2018-12-04T14:00:50.536Z,2.60
2018-12-04T14:03:19.207Z,2.60
2018-12-04T14:05:47.768Z,2.67
2018-12-04T14:08:16.283Z,2.30
2018-12-04T14:10:44.805Z,2.43
2018-12-04T14:13:13.577Z,2.33
2018-12-04T14:15:43.222Z,3.40
2018-12-04T14:18:11.932Z,2.70
2018-12-04T14:20:42.624Z,2.63
2018-12-04T14:23:11.186Z,2.83
2018-12-04T14:25:39.840Z,2.50
2018-12-04T14:28:08.469Z,2.60
2018-12-04T14:30:37.142Z,2.73
2018-12-04T14:33:05.878Z,2.60
2018-12-04T14:35:34.532Z,3.23
2018-12-04T14:38:03.089Z,3.07
2018-12-04T14:40:32.078Z,2.40
2018-12-04T14:43:00.586Z,2.93
2018-12-04T14:45:29.162Z,3.13
2018-12-04T14:47:57.739Z,2.57
2018-12-04T14:50:26.392Z,2.23
2018-12-04T14:52:55.002Z,2.67
2018-12-04T14:55:23.631Z,3.80
2018-12-04T14:57:52.280Z,2.73
2018-12-04T15:00:20.925Z,2.73
2018-12-04T15:02:49.558Z,3.30
2018-12-04T15:05:18.074Z,3.10
2018-12-04T15:07:46.572Z,3.83
2018-12-04T15:10:15.233Z,4.20
2018-12-04T15:12:43.830Z,3.57
2018-12-04T15:15:12.426Z,3.67
2018-12-04T15:17:41.002Z,3.40
2018-12-04T15:20:09.479Z,4.03
2018-12-04T15:22:38.008Z,3.17
2018-12-04T15:25:06.565Z,3.43
2018-12-04T15:27:35.108Z,3.10
2018-12-04T15:30:03.721Z,3.87
2018-12-04T15:32:32.368Z,4.17
2018-12-04T15:35:01.250Z,4.00
2018-12-04T15:37:29.897Z,4.20
2018-12-04T15:39:58.633Z,4.23
2018-12-04T15:42:27.319Z,4.00
2018-12-04T15:44:55.950Z,3.73
2018-12-04T15:47:24.490Z,3.30
2018-12-04T15:49:53.036Z,3.93
2018-12-04T15:52:21.560Z,4.33
2018-12-04T15:54:50.027Z,3.43
2018-12-04T15:57:18.844Z,3.63
2018-12-04T15:59:47.778Z,4.00
2018-12-04T16:02:16.228Z,4.40
2018-12-04T16:04:44.751Z,4.43
2018-12-04T16:07:13.356Z,3.73
2018-12-04T16:09:41.940Z,3.10
2018-12-04T16:12:10.591Z,3.97
2018-12-04T16:14:39.186Z,3.73
2018-12-04T16:17:14.959Z,4.03
2018-12-04T16:19:38.457Z,3.80
2018-12-04T16:22:07.013Z,4.50
2018-12-04T16:24:35.621Z,4.40
2018-12-04T16:27:04.246Z,4.70
2018-12-04T16:29:33.132Z,4.77
2018-12-04T16:32:01.706Z,4.83
2018-12-04T16:34:30.473Z,5.87
2018-12-04T16:36:59.073Z,5.30
2018-12-04T16:39:27.687Z,5.07
2018-12-04T16:41:56.299Z,5.73
2018-12-04T16:44:24.915Z,5.13
2018-12-04T16:46:53.572Z,6.67
2018-12-04T16:49:22.222Z,4.90
2018-12-04T16:51:50.843Z,4.43
2018-12-04T16:54:19.493Z,5.03
2018-12-04T16:56:48.024Z,4.07
2018-12-04T16:59:16.691Z,4.83
2018-12-04T17:01:45.248Z,5.53
2018-12-04T17:04:13.796Z,12.20
2018-12-04T17:06:42.390Z,6.40
2018-12-04T17:09:11.080Z,5.10
2018-12-04T17:11:39.709Z,5.50
2018-12-04T17:14:08.284Z,5.27
2018-12-04T17:16:36.801Z,5.40
2018-12-04T17:19:05.583Z,6.20
2018-12-04T17:21:34.346Z,5.47
2018-12-04T17:24:03.019Z,5.80
2018-12-04T17:26:31.600Z,5.73
2018-12-04T17:29:00.138Z,6.67
2018-12-04T17:31:28.682Z,6.20
2018-12-04T17:33:57.288Z,5.80
2018-12-04T17:36:25.833Z,5.73
2018-12-04T17:38:54.405Z,6.17
2018-12-04T17:41:23.035Z,6.17
2018-12-04T17:43:51.759Z,6.53
2018-12-04T17:46:20.244Z,6.30
2018-12-04T17:48:48.941Z,6.57
2018-12-04T17:51:17.566Z,7.67
2018-12-04T17:53:46.337Z,8.07
2018-12-04T17:56:14.999Z,8.70
2018-12-04T17:58:43.818Z,9.20
2018-12-04T18:01:12.567Z,8.27
2018-12-04T18:03:41.193Z,8.20
2018-12-04T18:06:09.741Z,7.83
2018-12-04T18:08:38.258Z,8.20
2018-12-04T18:11:06.851Z,8.53
2018-12-04T18:13:35.390Z,6.90
2018-12-04T18:16:03.932Z,7.60
2018-12-04T18:18:32.508Z,6.73
2018-12-04T18:21:01.223Z,7.27
2018-12-04T18:23:29.693Z,6.97
2018-12-04T18:25:58.326Z,8.00
2018-12-04T18:28:26.862Z,7.87
2018-12-04T18:30:55.327Z,8.20
2018-12-04T18:33:24.002Z,7.87
2018-12-04T18:35:52.630Z,13.77
2018-12-04T18:38:21.352Z,8.43
2018-12-04T18:40:49.860Z,8.20
2018-12-04T18:43:18.444Z,8.00
2018-12-04T18:45:47.004Z,8.53
2018-12-04T18:48:15.518Z,10.20
2018-12-04T18:50:44.134Z,9.37
2018-12-04T18:53:12.695Z,9.90
2018-12-04T18:55:41.343Z,11.07
2018-12-04T18:58:09.858Z,9.80
2018-12-04T19:00:38.453Z,10.40
2018-12-04T19:03:07.096Z,10.17
2018-12-04T19:05:35.638Z,10.40
2018-12-04T19:08:04.196Z,10.07
2018-12-04T19:10:32.789Z,11.53
2018-12-04T19:13:02.324Z,12.10
2018-12-04T19:15:30.869Z,10.53
2018-12-04T19:17:59.412Z,10.27
2018-12-04T19:20:28.032Z,8.70
2018-12-04T19:22:56.571Z,9.20
2018-12-04T19:25:25.161Z,12.97
2018-12-04T19:27:53.897Z,10.43
2018-12-04T19:30:22.423Z,10.87
2018-12-04T19:32:50.935Z,8.43
2018-12-04T19:35:19.568Z,9.27
2018-12-04T19:37:48.066Z,8.80
2018-12-04T19:40:16.687Z,9.10
2018-12-04T19:42:45.570Z,9.17
2018-12-04T19:45:14.406Z,12.43
2018-12-04T19:47:42.957Z,17.20
2018-12-04T19:50:11.575Z,10.60
2018-12-04T19:52:40.502Z,11.20
2018-12-04T19:55:09.119Z,10.83
2018-12-04T19:57:37.765Z,10.50
2018-12-04T20:00:08.211Z,10.87
2018-12-04T20:02:36.807Z,9.87
2018-12-04T20:05:05.416Z,9.53
2018-12-04T20:07:33.933Z,9.70
2018-12-04T20:10:02.856Z,10.33
2018-12-04T20:12:31.487Z,10.63
2018-12-04T20:15:00.189Z,10.03
2018-12-04T20:17:28.640Z,9.70
2018-12-04T20:19:57.223Z,10.80
2018-12-04T20:22:25.809Z,10.37
2018-12-04T20:24:54.393Z,11.50
2018-12-04T20:27:23.124Z,10.67
2018-12-04T20:29:51.651Z,10.77
2018-12-04T20:32:20.210Z,11.20
2018-12-04T20:34:48.716Z,10.10
2018-12-04T20:37:17.450Z,10.87
2018-12-04T20:39:46.090Z,11.13
2018-12-04T20:42:14.864Z,9.43
2018-12-04T20:44:43.368Z,10.70
2018-12-04T20:47:11.980Z,10.83
2018-12-04T20:49:40.754Z,10.63
2018-12-04T20:52:09.619Z,9.13
2018-12-04T20:54:38.122Z,10.10
2018-12-04T20:57:06.794Z,10.13
2018-12-04T20:59:35.314Z,9.67
2018-12-04T21:02:04.074Z,10.37
2018-12-04T21:04:32.600Z,9.77
2018-12-04T21:07:01.165Z,9.90
2018-12-04T21:09:29.708Z,9.80
2018-12-04T21:11:58.260Z,9.57
2018-12-04T21:14:26.794Z,10.50
2018-12-04T21:16:55.285Z,9.57
2018-12-04T21:19:23.756Z,10.47
2018-12-04T21:21:52.479Z,9.57
2018-12-04T21:24:20.965Z,11.33
2018-12-04T21:26:57.079Z,9.90
2018-12-04T21:29:31.430Z,9.80
2018-12-04T21:32:05.461Z,9.53
2018-12-04T21:34:39.415Z,9.60
2018-12-04T21:37:13.170Z,10.77
2018-12-04T21:39:44.176Z,10.07
2018-12-04T21:42:17.862Z,10.43
2018-12-04T21:44:51.556Z,9.67
2018-12-04T21:47:25.139Z,10.77
2018-12-04T21:49:53.617Z,10.73
2018-12-04T21:52:22.223Z,10.73
2018-12-04T21:54:50.694Z,9.83
2018-12-04T21:57:19.192Z,10.07
2018-12-04T21:59:47.719Z,11.30
2018-12-04T22:02:16.209Z,10.10
2018-12-04T22:04:45.068Z,10.17
2018-12-04T22:07:13.877Z,9.80
2018-12-04T22:09:42.318Z,10.70
2018-12-04T22:12:10.825Z,10.50
2018-12-04T22:14:39.264Z,9.37
2018-12-04T22:17:07.843Z,10.27
2018-12-04T22:19:36.320Z,9.00
2018-12-04T22:22:04.892Z,9.00
2018-12-04T22:24:33.458Z,10.27
2018-12-04T22:27:01.940Z,9.00
2018-12-04T22:29:30.444Z,9.17
2018-12-04T22:31:59.012Z,9.60
2018-12-04T22:34:27.523Z,8.43
2018-12-04T22:36:56.081Z,9.03
2018-12-04T22:39:24.616Z,9.33
2018-12-04T22:41:53.090Z,9.83
2018-12-04T22:44:21.642Z,9.77
2018-12-04T22:46:50.115Z,9.43
2018-12-04T22:49:18.561Z,9.57
2018-12-04T22:51:47.061Z,9.53
2018-12-04T22:54:15.572Z,9.73
2018-12-04T22:56:44.041Z,9.13
2018-12-04T22:59:12.550Z,9.70
2018-12-04T23:01:41.925Z,8.93
2018-12-04T23:04:10.544Z,10.23
2018-12-04T23:06:39.049Z,9.43
2018-12-04T23:09:10.341Z,9.30
2018-12-04T23:11:39.189Z,8.83
2018-12-04T23:14:07.868Z,9.87
2018-12-04T23:16:36.437Z,9.47
2018-12-04T23:19:05.070Z,9.70
2018-12-04T23:21:33.550Z,11.03
2018-12-04T23:24:02.059Z,8.73
2018-12-04T23:26:30.693Z,10.17
2018-12-04T23:28:59.191Z,9.63
2018-12-04T23:31:27.647Z,9.97
2018-12-04T23:33:56.213Z,9.07
2018-12-04T23:36:24.703Z,9.33
2018-12-04T23:38:53.249Z,9.83
2018-12-04T23:41:21.769Z,10.27
2018-12-04T23:43:50.498Z,9.17
2018-12-04T23:46:18.989Z,8.93
2018-12-04T23:48:47.569Z,9.47
2018-12-04T23:51:16.101Z,8.90
2018-12-04T23:53:44.580Z,10.30
2018-12-04T23:56:13.071Z,10.17
2018-12-04T23:58:41.625Z,10.17
